WetterOnline ( https://www.wetteronline.de )

Wetter aktuell Westerwald (in 500m)

Aktuelles Wetter: Bad Marienberg (555m)

6-stündlich | Neueste Meldungen
Ortszeit Temperatur Wetter
So, 22.05. 14:00 18.3° C fast wolkenlos
So, 22.05. 8:00 12.8° C bewölkt
So, 22.05. 2:00 11.4° C fast wolkenlos
Sa, 21.05. 20:00 14.2° C bedeckt
Sa, 21.05. 14:00 13.7° C bewölkt
Sa, 21.05. 8:00 9.0° C bewölkt
Sa, 21.05. 2:00 9.4° C bewölkt
Fr, 20.05. 20:00 15.1° C Regen
Ortszeit Temperatur Wetter
So, 22.05. 18:00 19.0° C leicht bewölkt
So, 22.05. 17:50 19.0° C wolkig
So, 22.05. 17:40 19.2° C bedeckt
So, 22.05. 17:30 19.0° C wolkig
So, 22.05. 17:20 19.0° C wolkig
So, 22.05. 17:10 19.3° C bewölkt
So, 22.05. 17:00 19.5° C wolkig
So, 22.05. 16:30 18.5° C fast wolkenlos
So, 22.05. 16:00 19.0° C wolkig
So, 22.05. 15:30 19.2° C leicht bewölkt
So, 22.05. 15:00 19.3° C leicht bewölkt
Ortszeit Relative Feuchte Sichtweite
So, 22.05. 14:00 50% >70 km
So, 22.05. 8:00 67% 35 km
So, 22.05. 2:00 70% 40 km
Sa, 21.05. 20:00 63% 65 km
Sa, 21.05. 14:00 64% >70 km
Sa, 21.05. 8:00 87% 60 km
Sa, 21.05. 2:00 92% 18 km
Fr, 20.05. 20:00 96% 27 km
Ortszeit Relative Feuchte Sichtweite
So, 22.05. 18:00 51% >70 km
So, 22.05. 17:50 51% -
So, 22.05. 17:40 47% -
So, 22.05. 17:30 48% 55 km
So, 22.05. 17:20 48% -
So, 22.05. 17:10 44% -
So, 22.05. 17:00 54% >70 km
So, 22.05. 16:30 48% 50 km
So, 22.05. 16:00 51% 60 km
So, 22.05. 15:30 50% 45 km
So, 22.05. 15:00 51% 50 km
Ortszeit Niederschlagsmenge Niederschlagsart
So, 22.05. 14:00 0.0 l/m2 in 6 Std. -
So, 22.05. 8:00 0.0 l/m2 in 12 Std. -
So, 22.05. 2:00 0.0 l/m2 in 6 Std. -
Sa, 21.05. 20:00 0.0 l/m2 in 12 Std. -
Sa, 21.05. 14:00 0.0 l/m2 in 6 Std. -
Sa, 21.05. 8:00 0.1 l/m2 in 12 Std. -
Sa, 21.05. 2:00 0.1 l/m2 in 6 Std. Regen
Fr, 20.05. 20:00 22 l/m2 in 12 Std. Regen
Ortszeit Niederschlagsmenge Niederschlagsart
So, 22.05. 18:00 0.0 l/m2 in 1 Std. -
So, 22.05. 17:50 keine Meldung -
So, 22.05. 17:40 keine Meldung -
So, 22.05. 17:30 0.0 l/m2 in 1 Std. -
So, 22.05. 17:20 keine Meldung -
So, 22.05. 17:10 keine Meldung -
So, 22.05. 17:00 0.0 l/m2 in 1 Std. -
So, 22.05. 16:30 0.0 l/m2 in 1 Std. -
So, 22.05. 16:00 0.0 l/m2 in 1 Std. -
So, 22.05. 15:30 0.0 l/m2 in 1 Std. -
So, 22.05. 15:00 0.0 l/m2 in 1 Std. -
Ortszeit Stärke Spitze Richtung
km/h Bft. km/h Grad Sektor
So, 22.05. 14:00 9 2 20 160° S
So, 22.05. 8:00 6 1 7 130° SO
So, 22.05. 2:00 4 1 14 350° N
Sa, 21.05. 20:00 4 1 29 300° NW
Sa, 21.05. 14:00 13 3 33 290° W
Sa, 21.05. 8:00 15 3 37 250° W
Sa, 21.05. 2:00 15 3 50 290° W
Fr, 20.05. 20:00 13 3 33 260° W
Ortszeit Stärke Spitze Richtung
km/h Bft. km/h Grad Sektor
So, 22.05. 18:00 13 3 20 200° S
So, 22.05. 17:50 13 3 - 200° S
So, 22.05. 17:40 7 2 - 190° S
So, 22.05. 17:30 7 2 15 180° S
So, 22.05. 17:20 7 2 - 180° S
So, 22.05. 17:10 4 1 - 160° S
So, 22.05. 17:00 6 1 15 50° NO
So, 22.05. 16:30 6 1 15 90° O
So, 22.05. 16:00 7 2 19 220° SW
So, 22.05. 15:30 7 2 18 150° SO
So, 22.05. 15:00 9 2 17 210° SW
Ortszeit Untergrenze Bedeckung Gattung
total tief tief mittel hoch
So, 22.05. 14:00 1380 m 1/8 1/8 - - -
So, 22.05. 8:00 1230 m 7/8 7/8 - - -
So, 22.05. 2:00 7800 m 2/8 0/8 - - -
Sa, 21.05. 20:00 3900 m 8/8 8/8 - - -
Sa, 21.05. 14:00 870 m 7/8 6/8 - - -
Sa, 21.05. 8:00 420 m 7/8 7/8 - - -
Sa, 21.05. 2:00 270 m 7/8 7/8 - - -
Fr, 20.05. 20:00 120 m 8/8 8/8 - - -
Ortszeit Bedeckungsgrad in Achtel und Wolkenuntergrenze
So, 22.05. 18:00 2(9000m) 8(10500m)
So, 22.05. 17:50 2(9000m) 8(10500m)
So, 22.05. 17:40 8
So, 22.05. 17:30 8(10500m)
So, 22.05. 17:20 8(10500m)
So, 22.05. 17:10 7
So, 22.05. 17:00 2(1500m) 7(10500m)
So, 22.05. 16:30 2(10500m)
So, 22.05. 16:00 5(1440m)
So, 22.05. 15:30 3(1440m)
So, 22.05. 15:00 2(1410m)
Ortszeit Luftdruck NN (hPa) Tendenz (hPa in 3 Std.)
So, 22.05. 14:00 1014 - 1,2
So, 22.05. 8:00 1018 - 0,6
So, 22.05. 2:00 1020 - 0,9
Sa, 21.05. 20:00 1020 - 1,2
Sa, 21.05. 14:00 1022 + 0,3
Sa, 21.05. 8:00 1022 + 0,4
Sa, 21.05. 2:00 1021 + 1,6
Fr, 20.05. 20:00 1015 - 0,7
Ortszeit Luftdruck NN (hPa) Tendenz (hPa in 3 Std.)
So, 22.05. 18:00 1012 - 1,1
So, 22.05. 17:50 1012 keine Meldung
So, 22.05. 17:40 1012 keine Meldung
So, 22.05. 17:30 1012 - 1,5
So, 22.05. 17:20 1012 keine Meldung
So, 22.05. 17:10 1012 keine Meldung
So, 22.05. 17:00 1012 - 1,5
So, 22.05. 16:30 1013 - 1,7
So, 22.05. 16:00 1013 - 1,5
So, 22.05. 15:30 1013 - 1,7
So, 22.05. 15:00 1013 - 1,4
Ortszeit Schneehöhe (cm)
So, 22.05. 14:00 0
So, 22.05. 8:00 0
So, 22.05. 2:00 0
Sa, 21.05. 20:00 0
Sa, 21.05. 14:00 0
Sa, 21.05. 8:00 0
Sa, 21.05. 2:00 0
Fr, 20.05. 20:00 0
Ortszeit Schneehöhe (cm)
So, 22.05. 18:00 0
So, 22.05. 17:50 0
So, 22.05. 17:40 0
So, 22.05. 17:30 0
So, 22.05. 17:20 0
So, 22.05. 17:10 0
So, 22.05. 17:00 0
So, 22.05. 16:30 0
So, 22.05. 16:00 0
So, 22.05. 15:30 0
So, 22.05. 15:00 0
Link zu dieser Seite / Seite empfehlen

Das Wetter in ...